TimeMST,TemperatureF,Dew PointF,Humidity,Sea Level PressureIn,VisibilityMPH,Wind Direction,Wind SpeedMPH,Gust SpeedMPH,PrecipitationIn,Events,Conditions,WindDirDegrees,DateUTC
12:15 AM,19.4,17.6,93,29.90,7.0,Calm,Calm,-,N/A,,Overcast,0,2013-02-26 07:15:00
12:35 AM,17.6,17.6,100,29.90,10.0,Calm,Calm,-,N/A,,Overcast,0,2013-02-26 07:35:00
12:55 AM,17.6,15.8,93,29.91,7.0,North,4.6,-,N/A,,Overcast,10,2013-02-26 07:55:00
1:15 AM,15.8,15.8,100,29.91,6.0,North,8.1,-,N/A,,Overcast,10,2013-02-26 08:15:00
1:35 AM,15.8,14.0,93,29.91,7.0,North,8.1,-,N/A,,Overcast,10,2013-02-26 08:35:00
1:55 AM,12.2,12.2,100,29.91,7.0,North,9.2,-,N/A,,Mostly Cloudy,10,2013-02-26 08:55:00
2:16 AM,12.2,12.2,100,29.91,7.0,North,8.1,-,N/A,,Overcast,10,2013-02-26 09:16:00
2:35 AM,12.2,10.4,92,29.91,10.0,NNE,5.8,-,N/A,,Mostly Cloudy,30,2013-02-26 09:35:00
2:55 AM,10.4,10.4,100,29.91,10.0,ENE,5.8,-,N/A,,Mostly Cloudy,60,2013-02-26 09:55:00
3:15 AM,8.6,8.6,100,29.91,10.0,NE,5.8,-,N/A,,Partly Cloudy,40,2013-02-26 10:15:00
3:35 AM,10.4,10.4,100,29.92,10.0,NE,4.6,-,N/A,,Scattered Clouds,50,2013-02-26 10:35:00
3:55 AM,8.6,6.8,92,29.92,10.0,Calm,Calm,-,N/A,,Overcast,0,2013-02-26 10:55:00
4:15 AM,10.4,8.6,92,29.92,10.0,NNE,4.6,-,N/A,,Overcast,20,2013-02-26 11:15:00
4:35 AM,8.6,8.6,100,29.93,8.0,Calm,Calm,-,N/A,,Overcast,0,2013-02-26 11:35:00
4:55 AM,8.6,8.6,100,29.93,5.0,NNE,3.5,-,N/A,,Overcast,20,2013-02-26 11:55:00
5:15 AM,10.4,8.6,92,29.94,10.0,North,6.9,-,N/A,,Mostly Cloudy,350,2013-02-26 12:15:00
5:35 AM,6.8,6.8,100,29.95,8.0,ENE,5.8,-,N/A,,Partly Cloudy,60,2013-02-26 12:35:00
5:55 AM,6.8,5.0,92,29.96,9.0,Calm,Calm,-,N/A,,Mostly Cloudy,0,2013-02-26 12:55:00
6:35 AM,6.8,3.2,85,29.98,10.0,ENE,3.5,-,N/A,,Clear,60,2013-02-26 13:35:00
7:51 AM,-0.4,-2.2,92,30.00,10.0,North,5.8,-,N/A,,Partly Cloudy,10,2013-02-26 14:51:00
8:51 AM,3.2,3.2,100,30.02,10.0,NNE,4.6,-,N/A,,Partly Cloudy,30,2013-02-26 15:51:00
9:51 AM,10.4,6.8,85,30.02,10.0,Calm,Calm,-,N/A,,Partly Cloudy,0,2013-02-26 16:51:00
10:52 AM,17.6,12.2,79,30.05,10.0,Calm,Calm,-,N/A,,Partly Cloudy,0,2013-02-26 17:52:00
11:51 AM,17.6,12.2,79,30.06,10.0,SE,3.5,-,N/A,,Scattered Clouds,140,2013-02-26 18:51:00
12:51 PM,23.0,14.0,68,30.06,10.0,South,4.6,-,N/A,,Scattered Clouds,180,2013-02-26 19:51:00
1:54 PM,24.8,10.4,54,30.06,10.0,ESE,4.6,-,N/A,,Partly Cloudy,120,2013-02-26 20:54:00
2:59 PM,24.8,12.2,59,30.08,10.0,South,5.8,-,N/A,,Partly Cloudy,170,2013-02-26 21:59:00
3:51 PM,24.8,8.6,50,30.09,10.0,West,9.2,-,N/A,,Scattered Clouds,260,2013-02-26 22:51:00
4:54 PM,23.0,6.8,50,30.10,10.0,West,12.7,-,N/A,,Clear,260,2013-02-26 23:54:00
5:51 PM,19.4,6.8,58,30.11,10.0,West,13.8,-,N/A,,Clear,270,2013-02-27 00:51:00
6:52 PM,15.8,6.8,68,30.13,10.0,SE,5.8,-,N/A,,Clear,130,2013-02-27 01:52:00
7:58 PM,6.8,-0.4,72,30.16,10.0,North,3.5,-,N/A,,Clear,10,2013-02-27 02:58:00
8:51 PM,3.2,1.4,92,30.18,10.0,NNE,6.9,-,N/A,,Clear,20,2013-02-27 03:51:00
8:56 PM,8.6,3.2,79,30.17,10.0,NNE,6.9,-,N/A,,Clear,20,2013-02-27 03:56:00
9:15 PM,1.4,-0.4,92,30.19,10.0,NNW,5.8,-,N/A,,Clear,330,2013-02-27 04:15:00
9:35 PM,-0.4,-2.2,92,30.19,10.0,North,8.1,-,N/A,,Clear,10,2013-02-27 04:35:00
10:15 PM,3.2,-0.4,85,30.21,10.0,ENE,8.1,-,N/A,,Clear,60,2013-02-27 05:15:00
10:35 PM,3.2,1.4,92,30.21,10.0,North,5.8,-,N/A,,Clear,10,2013-02-27 05:35:00
10:55 PM,1.4,-0.4,92,30.22,10.0,Calm,Calm,-,N/A,,Clear,0,2013-02-27 05:55:00
11:15 PM,3.2,1.4,92,30.22,10.0,NW,4.6,-,N/A,,Clear,310,2013-02-27 06:15:00
11:35 PM,-0.4,-2.2,92,30.23,10.0,Calm,Calm,-,N/A,,Clear,0,2013-02-27 06:35:00
11:55 PM,-0.4,-4.0,85,30.23,10.0,NNE,3.5,-,N/A,,Clear,30,2013-02-27 06:55:00